Time;durP1;ratioP1;P1;durP2;ratioP2;P2;SDS_P1;SDS_P2;PMS_P1;PMS_P2;Temp;Humidity;BMP_temperature;BMP_pressure;BME280_temperature;BME280_humidity;BME280_pressure;Samples;Min_cycle;Max_cycle;Signal;HPM_P1;HPM_P2
2022/08/22 00:02:12;;;;;;;10.48;9.98;;;;;;;23.73;100.00;100007.19;5003734;28;20499;-66
2022/08/22 00:04:59;;;;;;;10.70;10.20;;;;;;;23.56;100.00;100007.44;5064680;28;20472;-66
2022/08/22 00:07:34;;;;;;;10.60;10.10;;;;;;;23.58;100.00;100002.59;5051059;28;20029;-66
2022/08/22 00:10:07;;;;;;;10.50;10.00;;;;;;;23.47;100.00;100001.78;5052274;28;20036;-66
2022/08/22 00:12:36;;;;;;;10.60;10.10;;;;;;;23.53;100.00;100005.28;5052556;28;20028;-66
2022/08/22 00:15:04;;;;;;;10.70;10.20;;;;;;;23.61;100.00;99999.34;5051866;28;20381;-67
2022/08/22 00:17:39;;;;;;;10.57;10.07;;;;;;;23.62;100.00;100000.97;5064549;28;20078;-67
2022/08/22 00:20:40;;;;;;;10.65;10.15;;;;;;;23.41;100.00;100000.16;5051821;28;20480;-67
2022/08/22 00:23:21;;;;;;;10.43;9.93;;;;;;;23.27;100.00;100005.28;5006142;28;20045;-66
2022/08/22 00:26:06;;;;;;;10.65;10.15;;;;;;;23.24;100.00;100005.03;5047942;28;20025;-67
2022/08/22 00:28:39;;;;;;;10.73;10.23;;;;;;;23.32;100.00;99999.88;5051854;28;20021;-66
2022/08/22 00:31:27;;;;;;;10.70;10.20;;;;;;;23.06;100.00;99999.09;5051663;28;20033;-66
2022/08/22 00:34:12;;;;;;;10.70;10.20;;;;;;;22.97;100.00;99997.16;5051923;28;20100;-67
2022/08/22 00:36:45;;;;;;;10.48;9.98;;;;;;;22.96;100.00;99990.16;5039429;28;20472;-66
2022/08/22 00:39:32;;;;;;;10.85;10.35;;;;;;;23.20;100.00;99993.13;5051568;28;20733;-66
2022/08/22 00:42:33;;;;;;;10.63;10.13;;;;;;;22.87;100.00;99996.09;5051737;28;20480;-67
2022/08/22 00:45:08;;;;;;;10.55;10.05;;;;;;;22.67;100.00;100000.63;5037221;28;20053;-67
2022/08/22 00:47:34;;;;;;;11.25;10.75;;;;;;;22.70;100.00;99994.69;5049843;28;20082;-67
2022/08/22 00:50:00;;;;;;;10.68;10.18;;;;;;;;;;5051635;28;20036;-66
2022/08/22 00:52:44;;;;;;;10.60;10.10;;;;;;;22.83;100.00;99994.97;5051498;28;20377;-66
2022/08/22 00:55:40;;;;;;;10.60;10.10;;;;;;;22.95;100.00;100002.06;5039372;28;20040;-66
2022/08/22 00:58:28;;;;;;;10.70;10.20;;;;;;;23.17;100.00;99989.06;5050282;28;20029;-67
2022/08/22 01:01:01;;;;;;;10.60;10.10;;;;;;;22.98;100.00;100004.19;5051411;28;20025;-68
2022/08/22 01:03:47;;;;;;;10.60;10.10;;;;;;;23.05;100.00;100008.25;5051250;28;20072;-67
2022/08/22 01:06:28;;;;;;;10.70;10.20;;;;;;;23.02;100.00;100008.81;5050958;28;20388;-67
2022/08/22 01:09:30;;;;;;;10.77;10.27;;;;;;;22.87;100.00;100011.50;5051066;28;20029;-67
2022/08/22 01:12:17;;;;;;;10.70;10.20;;;;;;;22.68;100.00;100013.88;5051492;28;20026;-66
2022/08/22 01:15:06;;;;;;;10.80;10.30;;;;;;;22.67;100.00;100017.66;5051306;28;20049;-66
2022/08/22 01:18:08;;;;;;;10.68;10.18;;;;;;;22.64;100.00;100011.97;5049628;28;20025;-67
2022/08/22 01:20:51;;;;;;;10.70;10.20;;;;;;;22.78;100.00;100021.22;5047406;28;20024;-66
2022/08/22 01:23:43;;;;;;;10.98;10.48;;;;;;;22.61;100.00;100014.13;5050126;28;20024;-67
2022/08/22 01:26:34;;;;;;;10.98;10.48;;;;;;;22.51;100.00;100022.22;5060172;28;20021;-66
2022/08/22 01:29:36;;;;;;;10.68;10.18;;;;;;;22.51;100.00;100021.41;5051435;28;20044;-67
2022/08/22 01:32:40;;;;;;;10.82;10.32;;;;;;;22.63;100.00;100015.75;5050735;28;20025;-67
2022/08/22 01:35:11;;;;;;;10.70;10.20;;;;;;;22.62;100.00;100014.94;5050866;28;20047;-66
2022/08/22 01:38:17;;;;;;;10.70;10.20;;;;;;;22.71;100.00;100017.94;5051114;28;20021;-66
2022/08/22 01:40:45;;;;;;;10.60;10.10;;;;;;;22.66;100.00;100018.72;5050041;28;20056;-67
2022/08/22 01:43:46;;;;;;;10.60;10.10;;;;;;;22.69;100.00;100018.19;5049821;28;20415;-66
2022/08/22 01:46:22;;;;;;;10.05;9.65;;;;;;;22.96;100.00;100025.31;5041360;28;20052;-67
2022/08/22 01:48:57;;;;;;;10.25;9.75;;;;;;;22.94;100.00;100028.28;5050043;28;20115;-66
2022/08/22 01:51:23;;;;;;;10.45;9.95;;;;;;;22.97;100.00;100030.44;5052286;28;20058;-66
2022/08/22 01:53:51;;;;;;;10.82;10.32;;;;;;;22.97;100.00;100021.53;5051652;28;20025;-67
2022/08/22 01:56:20;;;;;;;10.40;9.90;;;;;;;22.82;100.00;100017.69;5055815;28;20070;-67
2022/08/22 01:58:58;;;;;;;10.40;9.90;;;;;;;22.86;100.00;100021.50;5049957;28;20627;-67
2022/08/22 02:02:13;;;;;;;10.30;9.80;;;;;;;22.63;100.00;100021.16;5051177;28;20071;-68
2022/08/22 02:04:45;;;;;;;10.45;9.95;;;;;;;22.70;100.00;100030.66;5029537;28;20037;-68
2022/08/22 02:07:40;;;;;;;10.40;9.90;;;;;;;22.72;100.00;100030.38;5038303;28;20025;-67
2022/08/22 02:10:36;;;;;;;10.10;9.70;;;;;;;22.66;100.00;100026.03;5048565;28;20173;-66
2022/08/22 02:13:11;;;;;;;10.38;9.88;;;;;;;22.76;100.00;100026.03;5050399;28;20365;-66
2022/08/22 02:15:40;;;;;;;10.30;9.80;;;;;;;22.79;100.00;100022.81;5050647;28;20033;-66
2022/08/22 02:18:05;;;;;;;10.30;9.80;;;;;;;22.82;100.00;100017.69;5050797;28;20075;-66
2022/08/22 02:20:46;;;;;;;10.60;10.10;;;;;;;22.74;100.00;100015.50;5050741;28;20028;-67
2022/08/22 02:23:29;;;;;;;10.68;10.18;;;;;;;22.66;100.00;100018.72;5053363;28;20099;-67
2022/08/22 02:26:08;;;;;;;10.38;9.88;;;;;;;22.43;100.00;100022.72;5054368;28;20051;-66
2022/08/22 02:28:46;;;;;;;10.75;10.25;;;;;;;22.49;100.00;100026.25;5055362;28;20463;-66
2022/08/22 02:31:24;;;;;;;10.07;9.68;;;;;;;22.57;100.00;100028.44;5058441;28;20067;-66
2022/08/22 02:33:56;;;;;;;10.85;10.35;;;;;;;22.46;100.00;100024.88;5054225;28;20060;-67
2022/08/22 02:36:39;;;;;;;10.45;9.95;;;;;;;22.42;100.00;100031.91;5053974;28;20032;-66
2022/08/22 02:39:18;;;;;;;10.50;10.00;;;;;;;22.37;100.00;100025.66;5054110;28;20107;-66
2022/08/22 02:41:56;;;;;;;10.55;10.05;;;;;;;22.33;100.00;100028.09;5066519;28;20455;-66
2022/08/22 02:44:33;;;;;;;10.57;10.07;;;;;;;22.36;100.00;100032.16;5053677;28;20020;-67
2022/08/22 02:47:39;;;;;;;10.65;10.15;;;;;;;22.15;100.00;100028.56;5053360;28;20025;-66
2022/08/22 02:50:23;;;;;;;10.80;10.30;;;;;;;22.15;100.00;100031.25;5051895;28;20040;-67
2022/08/22 02:53:12;;;;;;;10.48;9.98;;;;;;;22.21;100.00;100036.41;5053691;28;20029;-66
2022/08/22 02:55:40;;;;;;;10.50;10.00;;;;;;;22.01;100.00;100042.50;5053585;28;20025;-67
2022/08/22 02:58:25;;;;;;;11.10;10.60;;;;;;;21.83;100.00;100042.94;5053345;28;20028;-68
2022/08/22 03:01:14;;;;;;;10.60;10.10;;;;;;;21.90;100.00;100048.13;5053312;28;20044;-67
2022/08/22 03:03:44;;;;;;;10.82;10.32;;;;;;;21.73;100.00;100040.97;5048879;28;20029;-66
2022/08/22 03:06:15;;;;;;;10.73;10.23;;;;;;;22.12;100.00;100048.81;5053704;28;20033;-66
2022/08/22 03:09:04;;;;;;;10.57;10.07;;;;;;;22.21;100.00;100033.72;5041657;28;20480;-67
2022/08/22 03:11:35;;;;;;;10.88;10.38;;;;;;;22.26;100.00;100049.97;5053239;28;20041;-67
2022/08/22 03:14:19;;;;;;;10.57;10.07;;;;;;;22.21;100.00;100049.94;5053355;28;20029;-66
2022/08/22 03:17:03;;;;;;;10.35;9.85;;;;;;;22.32;100.00;100051.59;5053272;28;20091;-67
2022/08/22 03:19:42;;;;;;;10.18;9.75;;;;;;;22.23;100.00;100049.66;5053154;28;20560;-67
2022/08/22 03:22:28;;;;;;;10.73;10.23;;;;;;;22.07;100.00;100056.84;5051850;28;20025;-67
2022/08/22 03:25:13;;;;;;;10.77;10.27;;;;;;;22.05;100.00;100048.19;5052885;28;20028;-67
2022/08/22 03:28:05;;;;;;;10.70;10.20;;;;;;;22.05;100.00;100057.13;5053128;28;20049;-67
2022/08/22 03:30:43;;;;;;;11.00;10.50;;;;;;;22.11;100.00;100055.28;5068243;28;20442;-67
2022/08/22 03:33:22;;;;;;;10.68;10.18;;;;;;;22.31;100.00;100051.84;5052588;28;20033;-68
2022/08/22 03:35:48;;;;;;;10.32;9.82;;;;;;;22.37;100.00;100047.28;5040448;28;20055;-67
2022/08/22 03:38:29;;;;;;;10.40;9.90;;;;;;;22.68;100.00;100046.31;5052654;28;20021;-67
2022/08/22 03:41:06;;;;;;;10.80;10.30;;;;;;;22.97;100.00;100049.38;5052536;28;20033;-66
2022/08/22 03:43:38;;;;;;;10.63;10.13;;;;;;;23.40;100.00;100047.25;5052206;28;20420;-67
2022/08/22 03:46:31;;;;;;;10.88;10.38;;;;;;;23.59;100.00;100047.53;5049372;28;20048;-67
2022/08/22 03:49:25;;;;;;;10.70;10.20;;;;;;;23.93;100.00;100043.16;5049588;28;20124;-66
2022/08/22 03:52:27;;;;;;;10.80;10.30;;;;;;;24.16;100.00;100049.03;5038553;28;20126;-67
2022/08/22 03:55:12;;;;;;;10.70;10.20;;;;;;;23.99;100.00;100061.00;5052488;28;20318;-66
2022/08/22 03:57:51;;;;;;;10.55;10.05;;;;;;;24.52;100.00;100058.69;5052110;28;20029;-66
2022/08/22 04:00:35;;;;;;;10.82;10.32;;;;;;;25.30;100.00;100065.31;5050110;28;20419;-66
2022/08/22 04:03:15;;;;;;;11.15;10.65;;;;;;;26.52;100.00;100064.13;5051492;28;20036;-67
2022/08/22 04:06:16;;;;;;;10.60;10.10;;;;;;;26.88;100.00;100069.91;5050877;28;20044;-67
2022/08/22 04:09:04;;;;;;;11.07;10.57;;;;;;;27.51;100.00;100074.91;5044307;28;20029;-66
2022/08/22 04:11:58;;;;;;;10.38;9.88;;;;;;;28.76;100.00;100075.84;5051039;28;20040;-66
2022/08/22 04:14:38;;;;;;;10.70;10.20;;;;;;;29.91;100.00;100084.28;5037372;28;20078;-66
2022/08/22 04:17:03;;;;;;;10.65;10.15;;;;;;;30.35;100.00;100074.34;5052201;28;20546;-67
2022/08/22 04:20:03;;;;;;;10.38;9.90;;;;;;;31.61;100.00;100076.22;5051990;28;20033;-67
2022/08/22 04:23:05;;;;;;;10.30;9.90;;;;;;;32.15;100.00;100079.28;5045280;28;20075;-66
2022/08/22 04:25:37;;;;;;;10.45;9.95;;;;;;;32.55;100.00;100077.00;5052045;28;20033;-66
2022/08/22 04:28:55;;;;;;;10.45;9.95;;;;;;;33.53;100.00;100077.53;5051839;28;20029;-67
2022/08/22 04:31:27;;;;;;;10.82;10.32;;;;;;;33.84;100.00;100077.00;5028291;28;20066;-66
2022/08/22 04:34:06;;;;;;;10.60;10.10;;;;;;;34.29;100.00;100079.69;5052364;28;20020;-66
2022/08/22 04:36:39;;;;;;;10.93;10.43;;;;;;;35.05;95.41;100085.63;5046823;28;20055;-66
2022/08/22 04:39:17;;;;;;;10.50;10.00;;;;;;;34.95;95.59;100075.06;5051608;28;20037;-66
2022/08/22 04:42:10;;;;;;;10.90;10.40;;;;;;;34.75;94.90;100074.06;5051346;28;20400;-67
2022/08/22 04:44:46;;;;;;;10.23;9.83;;;;;;;36.19;89.72;100072.91;5048102;28;20112;-66
2022/08/22 04:47:35;;;;;;;10.45;9.95;;;;;;;35.81;89.93;100073.50;5051527;28;20261;-69
2022/08/22 04:50:26;;;;;;;10.45;9.95;;;;;;;36.47;86.69;100081.09;5050651;28;20029;-68
2022/08/22 04:53:22;;;;;;;10.80;10.30;;;;;;;36.60;85.11;100086.50;5037207;28;20036;-69
2022/08/22 04:56:09;;;;;;;10.65;10.15;;;;;;;37.65;80.82;100088.28;4998661;28;20064;-68
2022/08/22 04:58:57;;;;;;;10.52;10.02;;;;;;;38.23;77.41;100099.97;5051971;28;20059;-68
2022/08/22 05:01:59;;;;;;;10.43;9.98;;;;;;;38.40;76.25;100098.69;5050140;28;20032;-68
2022/08/22 05:04:26;;;;;;;10.30;9.90;;;;;;;38.25;73.88;100096.84;5047823;28;20035;-68
2022/08/22 05:06:58;;;;;;;10.50;10.00;;;;;;;38.89;71.41;100093.06;5051343;28;20035;-67
2022/08/22 05:09:27;;;;;;;10.50;10.00;;;;;;;39.06;69.79;100102.78;5051477;28;20047;-68
2022/08/22 05:11:59;;;;;;;10.45;9.98;;;;;;;39.14;68.49;100098.13;5051281;28;20079;-68
2022/08/22 05:14:38;;;;;;;10.30;9.90;;;;;;;38.96;68.69;100107.03;5049369;28;20116;-67
2022/08/22 05:17:08;;;;;;;10.30;9.90;;;;;;;39.89;65.36;100101.75;5041166;28;20025;-68
2022/08/22 05:19:38;;;;;;;10.00;9.60;;;;;;;40.22;64.40;100098.06;5061947;28;20025;-68
2022/08/22 05:22:06;;;;;;;9.90;9.50;;;;;;;37.58;77.12;100098.03;5051227;28;20017;-68
2022/08/22 05:24:41;;;;;;;10.10;9.70;;;;;;;39.25;68.94;100110.19;5051110;28;20021;-68
2022/08/22 05:27:19;;;;;;;10.20;9.80;;;;;;;39.35;66.83;100108.69;5051078;28;20032;-70
2022/08/22 05:29:48;;;;;;;10.50;10.00;;;;;;;39.36;67.93;100113.06;5049906;28;20128;-67
2022/08/22 05:32:55;;;;;;;10.35;9.93;;;;;;;38.91;71.23;100123.19;5051308;28;20025;-68
2022/08/22 05:35:32;;;;;;;10.50;10.02;;;;;;;39.06;70.31;100122.19;5049787;28;20029;-69
2022/08/22 05:37:58;;;;;;;10.48;10.00;;;;;;;39.78;65.48;100116.31;5043942;28;20032;-69
2022/08/22 05:40:29;;;;;;;10.55;10.05;;;;;;;40.26;61.99;100121.91;5066076;28;20029;-68
2022/08/22 05:42:56;;;;;;;10.25;9.85;;;;;;;39.37;66.55;100120.19;5051047;28;20083;-67
2022/08/22 05:45:23;;;;;;;10.50;10.00;;;;;;;40.23;61.63;100116.31;5050927;28;20126;-68
2022/08/22 05:48:29;;;;;;;10.70;10.20;;;;;;;39.29;64.86;100112.97;5064436;28;20083;-67
2022/08/22 05:50:58;;;;;;;10.60;10.10;;;;;;;40.33;61.84;100116.41;5049787;28;20043;-66
2022/08/22 05:53:39;;;;;;;10.20;9.80;;;;;;;40.08;61.16;100115.41;5045966;28;20090;-67
2022/08/22 05:56:13;;;;;;;10.63;10.13;;;;;;;40.22;59.81;100111.94;5051731;28;20389;-68
2022/08/22 05:58:41;;;;;;;10.57;10.07;;;;;;;39.85;61.65;100110.03;5054644;28;20017;-67
2022/08/22 06:01:30;;;;;;;10.63;10.13;;;;;;;38.35;68.46;100113.66;5055253;28;20029;-67
2022/08/22 06:04:07;;;;;;;10.25;9.85;;;;;;;39.41;66.59;100112.72;5040918;28;20043;-68
2022/08/22 06:06:57;;;;;;;10.45;9.95;;;;;;;40.49;59.37;100121.72;5038478;28;20464;-69
2022/08/22 06:09:48;;;;;;;10.60;10.10;;;;;;;40.27;60.10;100109.63;5056167;28;20116;-68
2022/08/22 06:12:21;;;;;;;10.75;10.25;;;;;;;40.70;58.91;100117.47;5046354;28;20519;-69
2022/08/22 06:14:46;;;;;;;10.30;9.90;;;;;;;40.59;58.41;100118.19;5057216;28;20029;-69
2022/08/22 06:17:25;;;;;;;10.30;9.90;;;;;;;38.49;67.32;100107.53;5043564;28;20039;-69
2022/08/22 06:19:53;;;;;;;10.65;10.15;;;;;;;38.25;69.93;100116.25;5051689;28;20032;-70
2022/08/22 06:22:24;;;;;;;10.70;10.20;;;;;;;37.83;75.47;100114.34;5049602;28;20484;-69
2022/08/22 06:24:52;;;;;;;11.00;10.50;;;;;;;39.09;68.47;100120.66;5050594;28;20155;-69
2022/08/22 06:27:22;;;;;;;10.65;10.15;;;;;;;40.30;63.08;100119.94;5050511;28;20048;-70
2022/08/22 06:29:56;;;;;;;10.90;10.40;;;;;;;40.86;58.28;100123.50;5078622;28;20025;-70
2022/08/22 06:32:25;;;;;;;10.65;10.15;;;;;;;42.09;53.04;100126.25;5050757;28;20055;-70
2022/08/22 06:34:55;;;;;;;10.50;10.00;;;;;;;41.45;54.68;100126.16;5052301;28;20025;-69
2022/08/22 06:37:31;;;;;;;10.52;10.02;;;;;;;41.26;56.15;100130.84;5049700;28;20031;-70
2022/08/22 06:39:59;;;;;;;10.73;10.23;;;;;;;41.34;54.87;100131.69;5043815;28;20035;-68
2022/08/22 06:42:29;;;;;;;10.60;10.10;;;;;;;40.65;57.09;100129.75;5051139;28;20031;-67
2022/08/22 06:45:07;;;;;;;10.10;9.70;;;;;;;42.06;53.04;100136.22;5049613;28;20094;-67
2022/08/22 06:47:41;;;;;;;10.70;10.20;;;;;;;42.39;51.53;100132.25;5049092;28;20052;-70
2022/08/22 06:50:13;;;;;;;10.75;10.25;;;;;;;40.90;53.40;100131.88;5054255;28;20032;-69
2022/08/22 06:52:51;;;;;;;10.95;10.45;;;;;;;42.11;52.75;100129.47;5045779;28;20358;-71
2022/08/22 06:55:17;;;;;;;10.20;9.80;;;;;;;42.32;49.54;100132.25;5039357;28;20116;-70
2022/08/22 06:57:58;;;;;;;10.68;10.18;;;;;;;41.95;52.00;100130.66;5046402;28;20112;-69
2022/08/22 07:00:25;;;;;;;10.95;10.45;;;;;;;42.20;51.23;100133.47;5046640;28;20055;-69
2022/08/22 07:03:04;;;;;;;10.82;10.32;;;;;;;42.33;49.94;100135.84;5045002;28;20117;-69
2022/08/22 07:05:36;;;;;;;10.60;10.10;;;;;;;42.91;47.95;100135.34;5049173;28;20033;-69
2022/08/22 07:08:12;;;;;;;10.57;10.07;;;;;;;43.70;46.08;100135.75;5048314;28;20029;-70
2022/08/22 07:10:57;;;;;;;10.73;10.23;;;;;;;43.53;46.33;100134.69;5040802;28;20452;-71
2022/08/22 07:13:25;;;;;;;10.77;10.27;;;;;;;43.42;47.04;100133.19;5043897;28;20020;-70
2022/08/22 07:15:56;;;;;;;10.52;10.02;;;;;;;43.45;47.53;100137.94;5049540;28;20048;-71
2022/08/22 07:18:25;;;;;;;10.80;10.30;;;;;;;36.30;82.64;100124.84;5049686;28;20025;-70
2022/08/22 07:20:56;;;;;;;10.77;10.27;;;;;;;40.18;64.31;100131.38;5061550;28;20483;-71
2022/08/22 07:23:31;;;;;;;10.25;9.85;;;;;;;34.39;93.36;100132.75;5046794;28;20492;-70
2022/08/22 07:26:37;;;;;;;10.25;9.85;;;;;;;35.85;91.81;100124.09;5049069;28;20056;-70
2022/08/22 07:29:11;;;;;;;10.40;9.95;;;;;;;39.09;77.86;100132.56;5031714;28;20097;-71
2022/08/22 07:31:42;;;;;;;10.32;9.90;;;;;;;42.95;60.18;100138.09;5058657;28;20506;-69
2022/08/22 07:34:29;;;;;;;10.57;10.07;;;;;;;43.36;54.82;100132.81;5055455;28;20047;-69
2022/08/22 07:37:02;;;;;;;10.80;10.30;;;;;;;43.30;53.95;100135.19;5043039;28;20079;-71
2022/08/22 07:39:27;;;;;;;10.68;10.18;;;;;;;43.62;51.90;100130.63;5040874;28;20021;-70
2022/08/22 07:42:09;;;;;;;10.65;10.15;;;;;;;42.45;54.79;100127.06;5049386;28;20028;-71
2022/08/22 07:44:40;;;;;;;10.82;10.32;;;;;;;43.05;54.18;100128.94;5037592;28;20224;-70
2022/08/22 07:47:11;;;;;;;10.77;10.27;;;;;;;38.47;77.13;100126.50;5047218;28;20029;-70
2022/08/22 07:49:41;;;;;;;10.52;10.02;;;;;;;36.71;83.76;100132.56;5049060;28;20049;-70
2022/08/22 07:52:10;;;;;;;10.80;10.30;;;;;;;40.23;68.94;100128.22;5050318;28;20033;-70
2022/08/22 07:54:41;;;;;;;10.85;10.35;;;;;;;38.31;80.55;100121.09;5046858;28;20041;-71
2022/08/22 07:57:13;;;;;;;10.68;10.18;;;;;;;39.53;73.19;100123.56;5040226;28;20026;-71
2022/08/22 07:59:47;;;;;;;10.50;10.00;;;;;;;39.72;74.07;100128.16;5041283;28;20492;-69
2022/08/22 08:02:14;;;;;;;10.27;9.88;;;;;;;39.27;72.66;100127.25;5059302;28;20066;-68
2022/08/22 08:04:42;;;;;;;10.48;9.98;;;;;;;38.14;74.66;100119.63;5048695;28;20025;-70
2022/08/22 08:07:10;;;;;;;10.18;9.77;;;;;;;41.69;61.51;100120.63;5046062;28;20033;-69
2022/08/22 08:09:50;;;;;;;10.82;10.32;;;;;;;41.66;60.55;100117.88;5047804;28;20066;-69
2022/08/22 08:12:20;;;;;;;10.48;10.00;;;;;;;41.88;58.11;100118.72;5048708;28;20392;-70
2022/08/22 08:14:51;;;;;;;10.82;10.32;;;;;;;42.18;56.32;100116.34;5048371;28;20067;-70
2022/08/22 08:17:29;;;;;;;10.55;10.05;;;;;;;42.96;51.97;100123.78;5042460;28;20013;-67
2022/08/22 08:19:55;;;;;;;10.82;10.32;;;;;;;35.94;86.37;100099.91;5048206;28;20024;-68
2022/08/22 08:22:26;;;;;;;10.65;10.15;;;;;;;34.29;96.89;100104.47;5047332;28;20021;-71
2022/08/22 08:24:56;;;;;;;10.80;10.30;;;;;;;34.92;92.61;100104.13;5050096;28;20028;-70
2022/08/22 08:30:16;;;;;;;11.10;10.60;;;;;;;35.83;88.71;100101.56;5047891;28;20158;-70
2022/08/22 08:32:54;;;;;;;10.77;10.27;;;;;;;34.34;90.50;100107.03;5036790;28;20035;-70
2022/08/22 08:35:23;;;;;;;10.55;10.05;;;;;;;36.01;89.61;100102.06;5050460;28;20418;-70
2022/08/22 08:37:57;;;;;;;10.88;10.38;;;;;;;32.88;100.00;100103.78;5054282;28;20537;-69
2022/08/22 08:40:33;;;;;;;10.88;10.38;;;;;;;31.84;100.00;100091.34;5046949;28;20059;-71
2022/08/22 08:46:13;;;;;;;11.40;10.90;;;;;;;34.32;99.49;100103.00;5046936;28;20534;-70
2022/08/22 08:49:16;;;;;;;11.20;10.70;;;;;;;33.69;100.00;100103.25;5047249;28;20063;-66
2022/08/22 08:52:30;;;;;;;11.43;10.93;;;;;;;35.41;95.70;100087.44;5047522;28;20032;-70
2022/08/22 08:55:23;;;;;;;10.93;10.43;;;;;;;35.86;93.19;100087.06;5057430;28;20041;-71
2022/08/22 08:58:09;;;;;;;11.17;10.67;;;;;;;36.01;92.09;100085.50;5046915;28;20028;-68
2022/08/22 09:00:44;;;;;;;11.55;11.05;;;;;;;35.59;94.93;100074.13;5045163;28;20021;-68
2022/08/22 09:03:40;;;;;;;11.40;10.90;;;;;;;34.68;95.62;100074.66;5047822;28;20855;-70
2022/08/22 09:06:21;;;;;;;11.02;10.52;;;;;;;34.55;97.43;100068.38;5044090;28;20029;-70
2022/08/22 09:09:21;;;;;;;11.27;10.77;;;;;;;37.76;87.35;100073.47;5034536;28;20116;-69
2022/08/22 09:12:26;;;;;;;10.90;10.40;;;;;;;31.85;100.00;100065.50;5047665;28;20585;-71
2022/08/22 09:15:38;;;;;;;11.20;10.70;;;;;;;31.22;100.00;100067.09;5045962;28;20079;-70
2022/08/22 09:18:30;;;;;;;10.75;10.25;;;;;;;31.27;100.00;100055.13;4997966;28;20041;-69
2022/08/22 09:21:09;;;;;;;11.27;10.77;;;;;;;31.14;100.00;100058.81;5048679;28;20087;-70
2022/08/22 09:23:53;;;;;;;10.85;10.35;;;;;;;30.89;100.00;100044.81;5049421;28;20043;-69
2022/08/22 09:26:56;;;;;;;11.10;10.60;;;;;;;30.69;100.00;100051.72;5038829;28;20539;-70
2022/08/22 09:29:33;;;;;;;11.13;10.63;;;;;;;30.56;100.00;100054.59;5034683;28;20080;-69
2022/08/22 09:32:11;;;;;;;10.80;10.30;;;;;;;31.45;100.00;100050.44;5067572;28;20791;-68
2022/08/22 09:34:45;;;;;;;10.75;10.25;;;;;;;29.84;100.00;100050.31;5053332;28;20036;-69
2022/08/22 09:37:18;;;;;;;10.85;10.35;;;;;;;29.99;100.00;100047.97;5053926;28;20025;-68
2022/08/22 09:39:49;;;;;;;11.00;10.50;;;;;;;30.61;100.00;100035.25;5066395;28;20485;-69
2022/08/22 09:42:51;;;;;;;10.70;10.20;;;;;;;30.22;100.00;100037.78;5053857;28;20481;-68
2022/08/22 09:45:36;;;;;;;10.73;10.23;;;;;;;30.51;100.00;100028.19;5038392;28;20076;-68
2022/08/22 09:48:29;;;;;;;10.77;10.27;;;;;;;30.21;100.00;100022.47;5047521;28;20512;-68
2022/08/22 09:51:20;;;;;;;11.15;10.65;;;;;;;30.40;100.00;100013.97;5061994;28;20029;-68
2022/08/22 09:54:11;;;;;;;10.60;10.10;;;;;;;29.79;100.00;100020.38;5053335;28;20025;-70
2022/08/22 09:56:42;;;;;;;10.77;10.27;;;;;;;30.40;100.00;100013.97;5050845;28;20025;-68
2022/08/22 09:59:30;;;;;;;10.77;10.27;;;;;;;30.18;100.00;100023.09;5053964;28;20061;-68
2022/08/22 10:02:11;;;;;;;10.52;10.02;;;;;;;29.90;100.00;100028.00;5053421;28;20033;-70
2022/08/22 10:05:15;;;;;;;10.45;9.95;;;;;;;31.79;100.00;100014.72;5053574;28;20060;-68
2022/08/22 10:08:02;;;;;;;10.73;10.23;;;;;;;31.33;100.00;100018.22;5061421;28;20090;-69
2022/08/22 10:10:59;;;;;;;10.68;10.18;;;;;;;30.27;100.00;100012.19;5093292;28;20779;-70
2022/08/22 10:13:45;;;;;;;10.88;10.38;;;;;;;30.09;100.00;100016.00;5050196;28;20072;-68
2022/08/22 10:16:24;;;;;;;10.80;10.30;;;;;;;30.05;100.00;100017.75;5051551;28;20052;-69
2022/08/22 10:19:08;;;;;;;10.75;10.25;;;;;;;30.70;100.00;100017.75;5053158;28;20029;-69
2022/08/22 10:22:18;;;;;;;10.52;10.02;;;;;;;30.77;100.00;100023.53;5041827;28;20484;-69
2022/08/22 10:24:46;;;;;;;11.48;10.98;;;;;;;31.79;100.00;100028.41;5040476;28;20066;-68
2022/08/22 10:27:23;;;;;;;11.40;10.90;;;;;;;30.93;100.00;100031.31;5043654;28;20580;-68
2022/08/22 10:30:04;;;;;;;10.85;10.35;;;;;;;31.12;100.00;100028.22;5050197;28;20037;-71
2022/08/22 10:32:38;;;;;;;10.95;10.45;;;;;;;31.94;100.00;100027.06;5050623;28;20516;-69
2022/08/22 10:35:29;;;;;;;10.93;10.43;;;;;;;31.44;100.00;100024.97;5052315;28;20028;-70
2022/08/22 10:37:59;;;;;;;11.20;10.70;;;;;;;31.01;100.00;100022.28;5056127;28;20033;-70
2022/08/22 10:40:45;;;;;;;10.73;10.23;;;;;;;30.67;100.00;100004.69;5049674;28;20113;-70
2022/08/22 10:43:18;;;;;;;10.93;10.43;;;;;;;30.95;100.00;100001.66;5039002;28;20059;-70
2022/08/22 10:45:48;;;;;;;11.40;10.90;;;;;;;30.64;100.00;99999.03;5050069;28;20121;-70
2022/08/22 10:48:33;;;;;;;11.35;10.85;;;;;;;31.14;100.00;99995.81;5053199;28;20484;-69
2022/08/22 10:51:15;;;;;;;10.95;10.45;;;;;;;30.83;100.00;99998.75;5039287;28;20043;-69
2022/08/22 10:54:03;;;;;;;10.88;10.38;;;;;;;31.38;100.00;99992.59;5039731;28;20069;-70
2022/08/22 10:56:45;;;;;;;10.80;10.30;;;;;;;31.87;100.00;99996.59;5048627;28;20108;-70
2022/08/22 10:59:28;;;;;;;11.05;10.55;;;;;;;31.43;100.00;99995.94;5044148;28;20037;-71
2022/08/22 11:02:23;;;;;;;11.50;11.00;;;;;;;31.54;100.00;99988.97;5052883;28;20504;-71
2022/08/22 11:05:20;;;;;;;10.27;9.77;;;;;;;31.42;100.00;99997.06;5041604;28;20442;-70
2022/08/22 11:07:57;;;;;;;11.00;10.50;;;;;;;31.77;100.00;99992.28;5054208;28;20060;-71
2022/08/22 11:10:53;;;;;;;11.15;10.65;;;;;;;31.50;100.00;100000.91;5055939;28;20020;-70
2022/08/22 11:13:39;;;;;;;10.95;10.45;;;;;;;31.04;100.00;100005.97;5048961;28;20444;-69
2022/08/22 11:16:30;;;;;;;11.25;10.75;;;;;;;31.82;100.00;99999.53;5052890;28;20105;-67
2022/08/22 11:19:23;;;;;;;10.75;10.25;;;;;;;31.27;100.00;100012.09;5042113;28;20048;-71
2022/08/22 11:22:14;;;;;;;11.40;10.90;;;;;;;31.74;100.00;100003.91;5049755;28;20021;-70
2022/08/22 11:24:56;;;;;;;10.98;10.48;;;;;;;32.25;98.85;100006.75;5049052;28;20173;-66
2022/08/22 11:27:58;;;;;;;10.57;10.07;;;;;;;31.83;99.27;100003.91;5046311;28;20059;-67
2022/08/22 11:30:30;;;;;;;11.10;10.60;;;;;;;33.00;94.47;100013.19;5053613;28;20112;-67
2022/08/22 11:33:00;;;;;;;10.80;10.30;;;;;;;32.84;92.75;100012.16;5047074;28;20025;-70
2022/08/22 11:35:53;;;;;;;11.25;10.75;;;;;;;32.40;93.52;100009.75;5047760;28;20029;-70
2022/08/22 11:38:45;;;;;;;11.07;10.57;;;;;;;32.62;90.70;100008.63;5049445;28;20056;-68
2022/08/22 11:41:23;;;;;;;10.93;10.43;;;;;;;32.52;92.59;100006.25;5042840;28;20148;-70
2022/08/22 11:44:03;;;;;;;11.95;11.45;;;;;;;32.38;91.85;99991.97;5049450;28;20064;-69
2022/08/22 11:46:39;;;;;;;11.30;10.80;;;;;;;32.36;92.54;100006.03;5048872;28;20373;-69
2022/08/22 11:49:12;;;;;;;10.85;10.35;;;;;;;32.49;92.74;99995.94;5050624;28;20515;-69
2022/08/22 11:52:03;;;;;;;10.07;9.68;;;;;;;31.60;95.78;100003.31;5047182;28;20507;-70
2022/08/22 11:55:10;;;;;;;11.20;10.70;;;;;;;31.66;95.50;100012.97;5055094;28;20044;-71
2022/08/22 11:57:57;;;;;;;10.85;10.35;;;;;;;32.05;93.75;100000.06;5048356;28;20025;-71
2022/08/22 12:00:53;;;;;;;11.10;10.60;;;;;;;32.13;93.29;100002.78;5048004;28;20452;-70
2022/08/22 12:03:37;;;;;;;10.52;10.02;;;;;;;31.63;96.52;99992.47;5044916;28;20033;-71
2022/08/22 12:06:14;;;;;;;10.93;10.43;;;;;;;31.77;95.99;99988.72;5055137;28;20078;-71
2022/08/22 12:08:41;;;;;;;10.95;10.45;;;;;;;31.69;95.89;99992.31;5047555;28;20036;-70
2022/08/22 12:11:18;;;;;;;10.93;10.43;;;;;;;32.79;93.81;99995.88;5048123;28;20032;-71
2022/08/22 12:13:57;;;;;;;11.15;10.65;;;;;;;31.86;95.21;99986.75;5046384;28;20059;-69
2022/08/22 12:16:34;;;;;;;10.52;10.02;;;;;;;31.73;96.58;99982.28;5059665;28;20124;-68